Higham Ferrers, United Kingdom
Current Conditions -  °F | °C
As of 9:50 AM on Monday 22 Dec 2014 (Local Time) from EGTC Reporting Station
Scattered Clouds Scattered Clouds  
Wind Chill: 54°   Ceiling: Unl
Heat Index: 54°   Visibility: 6mi
Dew Point: 48°   Wind: 22mph
Humidity: 82%   Direction: 240°WSW
Pressure: 29.97"   Gusts: 38mph
Location:  52.31°N, 0.59°W
Report Text: EGTC 220950Z 24019G33KT 9999 SCT017 12/09 Q1015
Loading
Personal Weather Stations






























Interactive Weather Map New forecast layout! Learn more

10-Day Weather Forecast

Advertisements
Track Severe Weather on mobile